This is the latest recevied weather packets stored in our database for station/object KI7JYE. If no packets are shown the sender has not sent any weather packets the latest 1 day(s).
| Time | Temp. | Humidity | Pressure | Rain* | Wind** | Luminosity | Snow |
|---|---|---|---|---|---|---|---|
| 1778004084 | 14.44° C | 79% | 1015.1 hPa | 0 mm | 0.45 m/s, 232° | 288 W/m² | - |
| 1778003779 | 14.44° C | 81% | 1015.4 hPa | 0 mm | 0 m/s | 245 W/m² | - |
| 1778003476 | 14.44° C | 81% | 1015.3 hPa | 0 mm | 0.89 m/s, 24° | 168 W/m² | - |
| 1778003173 | 14.44° C | 79% | 1015.6 hPa | 0 mm | 0.89 m/s, 239° | 145 W/m² | - |
| 1778002869 | 14.44° C | 80% | 1015.5 hPa | 0 mm | 0.89 m/s, 263° | 144 W/m² | - |
| 1778002566 | 14.44° C | 80% | 1015.5 hPa | 0 mm | 0.45 m/s, 233° | 151 W/m² | - |
| 1778002262 | 14.44° C | 79% | 1015.5 hPa | 0 mm | 1.34 m/s, 293° | 184 W/m² | - |
| 1778001960 | 14.44° C | 80% | 1015.3 hPa | 0 mm | 0 m/s | 209 W/m² | - |
| 1778001656 | 14.44° C | 81% | 1015.4 hPa | 0 mm | 0.45 m/s, 219° | 252 W/m² | - |
| 1778001351 | 13.89° C | 81% | 1015.5 hPa | 0 mm | 0 m/s | 224 W/m² | - |
| 1778001048 | 13.89° C | 81% | 1015.6 hPa | 0 mm | 0.89 m/s, 243° | 155 W/m² | - |
| 1778000745 | 13.89° C | 82% | 1015.4 hPa | 0 mm | 0.45 m/s, 243° | 144 W/m² | - |
| 1778000442 | 13.89° C | 81% | 1015.4 hPa | 0 mm | 0 m/s | 140 W/m² | - |
| 1778000137 | 13.89° C | 83% | 1015.2 hPa | 0 mm | 0.45 m/s, 231° | 158 W/m² | - |
| 1777999833 | 13.89° C | 82% | 1015.2 hPa | 0 mm | 0.89 m/s, 264° | 151 W/m² | - |
| 1777999529 | 13.33° C | 84% | 1015 hPa | 0 mm | 0.45 m/s, 239° | 149 W/m² | - |
| 1777999227 | 13.89° C | 85% | 1015.2 hPa | 0 mm | 0 m/s | 107 W/m² | - |
| 1777998925 | 13.33° C | 85% | 1015.1 hPa | 0 mm | 0 m/s | 111 W/m² | - |
| 1777998622 | 13.89° C | 84% | 1015 hPa | 0 mm | 0.89 m/s, 242° | 108 W/m² | - |
| 1777998325 | 13.89° C | 83% | 1015.2 hPa | 0 mm | 1.34 m/s, 243° | 121 W/m² | - |
| 1777998012 | 13.89° C | 84% | 1015.2 hPa | 0 mm | 0 m/s | 115 W/m² | - |
| 1777997709 | 13.33° C | 84% | 1015.3 hPa | 0 mm | 0 m/s | 170 W/m² | - |
| 1777997406 | 13.89° C | 83% | 1015.1 hPa | 0 mm | 0 m/s | 129 W/m² | - |
| 1777997104 | 13.33° C | 84% | 1015.3 hPa | 0 mm | 0 m/s | 125 W/m² | - |
| 1777996800 | 13.33° C | 85% | 1015.1 hPa | 0 mm | 0 m/s | 116 W/m² | - |
* Rain latest hour (hover to see other rain measurements)
** Current wind speed in m/s (hover to see current wind gust speed)